Palm Beach International Airport
KPBI : rendu visible

Aérodrome :











RETROUVEZ-NOUS SUR...

 
LOGIN :

S'inscrire | Disclaimer

   EN    FR    IT 

 









Légende :    VFR   VFR Marginal   IFR   IFR Intensif   IFR Très Intensif
Visi : 
Plafond : 
>= 8 km
>= 3000ft
5 à 8 km
1000 à 3000 ft
1500m à 5 km
500 à 1000 ft
800 à 1500m
200 à 500 ft
< 800m
< 200 ft
Symboles :   Orages  Brouillard  Fortes neiges  Fortes précipitations  Vent > 20 kt






- Altitude de l'aérodrome : 19 ft
- Code IATA : PBI


KPBI - Palm Beach International

DERNIER METAR :
  • 210253Z 32008KT 10SM CLR 15/09 A3016 RMK AO2 SLP211 T01500094 51009

METARs EXPIRÉS :
  • 210153Z 33010KT 10SM FEW028 16/08 A3016 RMK AO2 SLP211 T01560083
  • 210053Z 35010KT 10SM SCT028 SCT250 16/09 A3015 RMK AO2 SLP209 T01560094

TAF KPBI
Valide du 21 à 03h jusqu'au 22 à 00h UTC


210240Z 2103/2124 33008KT P6SM FEW025 SCT250
FM211400 34015KT P6SM FEW050 SCT250



MET'MAP, la Météo Aéronautique d'un coup d'oeil ! - Copyright ORBIFLY Décembre 2007 - Disclaimer

ORBIFLY MET'MAP TEAM :

Programmation & Développement : Alexandra Zaïnal
Sur une idée originale de : Baudouin d'Aumeries
Assistance à la programmation : Marc-Olivier Méhu
Soutien technique & logistique : Manuel Goepfert

Contact : metmap@orbifly.com




SOURCES & CREDITS :

   NOAA       Earth
Advisory